Central Wisconsin Airport


Codes: KCWA/CWA
Name: Central Wisconsin Airport
City: Mosinee
Country: United States
Elevation: 1277 ft.

Photos at Central Wisconsin Airport


   Photos courtesy of SpottingLog. You can add your own sightings and photos by signing up for a free trial today.



No photos found.

Weather at Central Wisconsin Airport


Time (UTC)DescriptionTempratureWindCloud coverageVisibilityPressureHumidity
26-Jun-2024 00:00Scattered Clouds26°C11 mph, W31%10000m1008hPa56%
26-Jun-2024 03:00Few Clouds21°C7 mph, NW17%10000m1009hPa78%
26-Jun-2024 06:00Few Clouds16°C7 mph, W17%10000m1010hPa95%
26-Jun-2024 09:00Scattered Clouds14°C7 mph, NW35%10000m1010hPa93%
26-Jun-2024 12:00Scattered Clouds15°C4 mph, NW36%10000m1011hPa91%
26-Jun-2024 15:00Overcast Clouds19°C9 mph, NW100%10000m1011hPa78%
26-Jun-2024 18:00Light Rain18°C11 mph, N85%10000m1011hPa80%
26-Jun-2024 21:00Light Rain20°C7 mph, N75%10000m1012hPa75%
27-Jun-2024 00:00Light Rain19°C2 mph, NE72%10000m1013hPa78%
27-Jun-2024 03:00Scattered Clouds13°C7 mph, N46%10000m1014hPa85%
27-Jun-2024 06:00Few Clouds10°C4 mph, NE23%10000m1016hPa85%
27-Jun-2024 09:00Clear Sky9°C2 mph, SE0%10000m1016hPa84%
27-Jun-2024 12:00Scattered Clouds12°C2 mph, NW45%10000m1017hPa79%
27-Jun-2024 15:00Broken Clouds17°C4 mph, SW71%10000m1016hPa70%
27-Jun-2024 18:00Broken Clouds20°C4 mph, SW71%10000m1015hPa68%
27-Jun-2024 21:00Light Rain20°C7 mph, S100%10000m1013hPa81%
28-Jun-2024 00:00Light Rain18°C11 mph, S100%10000m1012hPa84%
28-Jun-2024 03:00Overcast Clouds15°C9 mph, SE96%10000m1011hPa91%
28-Jun-2024 06:00Overcast Clouds15°C11 mph, S98%10000m1011hPa79%
28-Jun-2024 09:00Overcast Clouds15°C11 mph, S100%10000m1009hPa67%
28-Jun-2024 12:00Overcast Clouds14°C11 mph, S96%10000m1008hPa76%
28-Jun-2024 15:00Overcast Clouds18°C16 mph, S100%10000m1005hPa81%
28-Jun-2024 18:00Moderate Rain16°C16 mph, S100%5839m1003hPa98%
28-Jun-2024 21:00Light Rain17°C13 mph, N100%0m1002hPa98%
29-Jun-2024 00:00Light Rain18°C11 mph, SW100%560m1001hPa99%
29-Jun-2024 03:00Light Rain19°C11 mph, SW100%410m1002hPa99%
29-Jun-2024 06:00Light Rain20°C11 mph, N100%0m1002hPa99%
29-Jun-2024 09:00Light Rain18°C9 mph, SW56%10000m1003hPa98%
29-Jun-2024 12:00Scattered Clouds15°C16 mph, W30%10000m1005hPa92%
29-Jun-2024 15:00Light Rain16°C18 mph, W31%10000m1007hPa84%
29-Jun-2024 18:00Light Rain12°C18 mph, W65%10000m1011hPa86%
29-Jun-2024 21:00Overcast Clouds12°C18 mph, NW100%10000m1014hPa82%
30-Jun-2024 00:00Overcast Clouds11°C16 mph, NW100%10000m1018hPa81%
30-Jun-2024 03:00Overcast Clouds9°C11 mph, NW100%10000m1023hPa74%
30-Jun-2024 06:00Broken Clouds5°C7 mph, NW70%10000m1025hPa93%
30-Jun-2024 09:00Clear Sky4°C7 mph, NW2%10000m1027hPa96%
30-Jun-2024 12:00Clear Sky7°C7 mph, NW3%10000m1028hPa87%
30-Jun-2024 15:00Clear Sky14°C4 mph, NW0%10000m1027hPa68%
30-Jun-2024 18:00Clear Sky18°C2 mph, NW2%10000m1027hPa58%
30-Jun-2024 21:00Clear Sky19°C2 mph, W8%10000m1025hPa57%